sensor_id;sensor_type;location;lat;lon;timestamp;P1;durP1;ratioP1;P2;durP2;ratioP2
53401;SDS011;39295;45.534;20.034;2023-05-14T00:00:54;5.60;;;3.88;;
53401;SDS011;39295;45.534;20.034;2023-05-14T00:03:20;7.50;;;4.05;;
53401;SDS011;39295;45.534;20.034;2023-05-14T00:05:47;4.30;;;3.75;;
53401;SDS011;39295;45.534;20.034;2023-05-14T00:11:17;3.95;;;3.20;;
53401;SDS011;39295;45.534;20.034;2023-05-14T00:13:43;5.75;;;3.00;;
53401;SDS011;39295;45.534;20.034;2023-05-14T00:16:09;4.45;;;3.30;;
53401;SDS011;39295;45.534;20.034;2023-05-14T00:18:35;8.07;;;3.28;;
53401;SDS011;39295;45.534;20.034;2023-05-14T00:24:01;3.80;;;2.90;;
53401;SDS011;39295;45.534;20.034;2023-05-14T00:26:27;3.83;;;2.80;;
53401;SDS011;39295;45.534;20.034;2023-05-14T00:28:53;3.33;;;2.80;;
53401;SDS011;39295;45.534;20.034;2023-05-14T00:31:19;4.45;;;2.53;;
53401;SDS011;39295;45.534;20.034;2023-05-14T00:33:45;6.93;;;2.80;;
53401;SDS011;39295;45.534;20.034;2023-05-14T00:39:01;5.18;;;2.67;;
53401;SDS011;39295;45.534;20.034;2023-05-14T00:41:27;7.20;;;2.80;;
53401;SDS011;39295;45.534;20.034;2023-05-14T00:43:53;5.05;;;2.80;;
53401;SDS011;39295;45.534;20.034;2023-05-14T00:46:20;5.85;;;3.00;;
53401;SDS011;39295;45.534;20.034;2023-05-14T00:48:46;4.20;;;2.78;;
53401;SDS011;39295;45.534;20.034;2023-05-14T00:51:12;4.30;;;2.60;;
53401;SDS011;39295;45.534;20.034;2023-05-14T00:53:38;3.85;;;2.90;;
53401;SDS011;39295;45.534;20.034;2023-05-14T00:56:04;4.47;;;2.60;;
53401;SDS011;39295;45.534;20.034;2023-05-14T00:58:32;3.60;;;2.72;;
53401;SDS011;39295;45.534;20.034;2023-05-14T01:00:58;4.75;;;2.58;;
53401;SDS011;39295;45.534;20.034;2023-05-14T01:03:24;4.45;;;2.80;;
53401;SDS011;39295;45.534;20.034;2023-05-14T01:16:27;5.57;;;3.03;;
53401;SDS011;39295;45.534;20.034;2023-05-14T01:18:54;5.20;;;3.17;;
53401;SDS011;39295;45.534;20.034;2023-05-14T01:27:35;5.95;;;3.13;;
53401;SDS011;39295;45.534;20.034;2023-05-14T01:30:17;9.18;;;3.30;;
53401;SDS011;39295;45.534;20.034;2023-05-14T01:32:46;5.15;;;2.92;;
53401;SDS011;39295;45.534;20.034;2023-05-14T01:35:12;4.78;;;2.97;;
53401;SDS011;39295;45.534;20.034;2023-05-14T01:38:00;4.28;;;3.05;;
53401;SDS011;39295;45.534;20.034;2023-05-14T01:40:28;6.50;;;2.88;;
53401;SDS011;39295;45.534;20.034;2023-05-14T01:42:54;10.05;;;3.60;;
53401;SDS011;39295;45.534;20.034;2023-05-14T01:45:21;4.95;;;3.40;;
53401;SDS011;39295;45.534;20.034;2023-05-14T01:47:47;8.05;;;3.40;;
53401;SDS011;39295;45.534;20.034;2023-05-14T01:50:13;5.65;;;3.28;;
53401;SDS011;39295;45.534;20.034;2023-05-14T01:52:58;6.13;;;3.92;;
53401;SDS011;39295;45.534;20.034;2023-05-14T01:55:24;4.95;;;3.30;;
53401;SDS011;39295;45.534;20.034;2023-05-14T01:57:50;5.50;;;3.30;;
53401;SDS011;39295;45.534;20.034;2023-05-14T02:00:16;7.57;;;3.58;;
53401;SDS011;39295;45.534;20.034;2023-05-14T02:02:43;6.30;;;3.40;;
53401;SDS011;39295;45.534;20.034;2023-05-14T02:05:09;5.18;;;3.50;;
53401;SDS011;39295;45.534;20.034;2023-05-14T02:13:56;4.70;;;3.58;;
53401;SDS011;39295;45.534;20.034;2023-05-14T02:16:22;6.97;;;4.32;;
53401;SDS011;39295;45.534;20.034;2023-05-14T02:18:49;6.70;;;3.60;;
53401;SDS011;39295;45.534;20.034;2023-05-14T02:21:15;5.95;;;3.65;;
53401;SDS011;39295;45.534;20.034;2023-05-14T02:26:44;7.38;;;4.07;;
53401;SDS011;39295;45.534;20.034;2023-05-14T02:29:10;7.70;;;3.80;;
53401;SDS011;39295;45.534;20.034;2023-05-14T02:31:36;5.32;;;4.15;;
53401;SDS011;39295;45.534;20.034;2023-05-14T02:34:03;6.38;;;3.75;;
53401;SDS011;39295;45.534;20.034;2023-05-14T02:36:31;6.43;;;4.03;;
53401;SDS011;39295;45.534;20.034;2023-05-14T02:38:57;7.47;;;4.20;;
53401;SDS011;39295;45.534;20.034;2023-05-14T02:41:25;5.57;;;3.85;;
53401;SDS011;39295;45.534;20.034;2023-05-14T02:43:51;5.50;;;3.78;;
53401;SDS011;39295;45.534;20.034;2023-05-14T02:46:17;6.00;;;3.58;;
53401;SDS011;39295;45.534;20.034;2023-05-14T02:48:43;8.40;;;4.55;;
53401;SDS011;39295;45.534;20.034;2023-05-14T02:51:11;5.45;;;3.78;;
53401;SDS011;39295;45.534;20.034;2023-05-14T02:56:40;12.20;;;4.50;;
53401;SDS011;39295;45.534;20.034;2023-05-14T02:59:06;6.30;;;4.20;;
53401;SDS011;39295;45.534;20.034;2023-05-14T03:01:33;7.72;;;4.40;;
53401;SDS011;39295;45.534;20.034;2023-05-14T03:03:59;6.38;;;4.10;;
53401;SDS011;39295;45.534;20.034;2023-05-14T03:06:25;7.47;;;3.90;;
53401;SDS011;39295;45.534;20.034;2023-05-14T03:11:55;5.68;;;4.30;;
53401;SDS011;39295;45.534;20.034;2023-05-14T03:14:21;4.90;;;4.13;;
53401;SDS011;39295;45.534;20.034;2023-05-14T03:16:47;6.70;;;4.07;;
53401;SDS011;39295;45.534;20.034;2023-05-14T03:19:13;5.28;;;3.75;;
53401;SDS011;39295;45.534;20.034;2023-05-14T03:24:56;5.95;;;3.50;;
53401;SDS011;39295;45.534;20.034;2023-05-14T03:27:23;5.63;;;3.60;;
53401;SDS011;39295;45.534;20.034;2023-05-14T03:29:49;7.30;;;3.78;;
53401;SDS011;39295;45.534;20.034;2023-05-14T03:32:16;6.00;;;4.35;;
53401;SDS011;39295;45.534;20.034;2023-05-14T03:34:42;4.50;;;3.75;;
53401;SDS011;39295;45.534;20.034;2023-05-14T03:37:09;5.95;;;3.80;;
53401;SDS011;39295;45.534;20.034;2023-05-14T03:39:35;4.95;;;3.70;;
53401;SDS011;39295;45.534;20.034;2023-05-14T03:42:01;4.60;;;3.53;;
53401;SDS011;39295;45.534;20.034;2023-05-14T03:44:27;6.45;;;4.00;;
53401;SDS011;39295;45.534;20.034;2023-05-14T03:46:53;4.20;;;3.65;;
53401;SDS011;39295;45.534;20.034;2023-05-14T03:49:19;5.07;;;3.38;;
53401;SDS011;39295;45.534;20.034;2023-05-14T03:51:45;7.03;;;3.95;;
53401;SDS011;39295;45.534;20.034;2023-05-14T03:54:12;5.68;;;3.80;;
53401;SDS011;39295;45.534;20.034;2023-05-14T03:56:38;5.88;;;3.97;;
53401;SDS011;39295;45.534;20.034;2023-05-14T03:59:04;5.50;;;3.83;;
53401;SDS011;39295;45.534;20.034;2023-05-14T04:01:30;7.90;;;4.20;;
53401;SDS011;39295;45.534;20.034;2023-05-14T04:03:56;5.97;;;3.78;;
53401;SDS011;39295;45.534;20.034;2023-05-14T04:06:22;4.65;;;3.63;;
53401;SDS011;39295;45.534;20.034;2023-05-14T04:11:52;4.72;;;3.83;;
53401;SDS011;39295;45.534;20.034;2023-05-14T04:14:18;5.40;;;3.90;;
53401;SDS011;39295;45.534;20.034;2023-05-14T04:16:44;7.38;;;3.80;;
53401;SDS011;39295;45.534;20.034;2023-05-14T04:19:10;5.65;;;3.70;;
53401;SDS011;39295;45.534;20.034;2023-05-14T04:21:36;8.75;;;3.75;;
53401;SDS011;39295;45.534;20.034;2023-05-14T04:27:21;5.47;;;4.28;;
53401;SDS011;39295;45.534;20.034;2023-05-14T04:29:47;4.50;;;3.72;;
53401;SDS011;39295;45.534;20.034;2023-05-14T04:32:14;7.70;;;4.03;;
53401;SDS011;39295;45.534;20.034;2023-05-14T04:34:40;5.15;;;3.97;;
53401;SDS011;39295;45.534;20.034;2023-05-14T04:40:09;4.43;;;3.72;;
53401;SDS011;39295;45.534;20.034;2023-05-14T04:42:36;4.28;;;3.65;;
53401;SDS011;39295;45.534;20.034;2023-05-14T04:45:03;6.57;;;4.20;;
53401;SDS011;39295;45.534;20.034;2023-05-14T04:47:29;5.25;;;3.78;;
53401;SDS011;39295;45.534;20.034;2023-05-14T04:49:55;5.78;;;3.80;;
53401;SDS011;39295;45.534;20.034;2023-05-14T04:55:08;9.07;;;4.05;;
53401;SDS011;39295;45.534;20.034;2023-05-14T04:57:34;5.57;;;4.05;;
53401;SDS011;39295;45.534;20.034;2023-05-14T05:00:00;6.07;;;3.88;;
53401;SDS011;39295;45.534;20.034;2023-05-14T05:02:26;7.82;;;4.28;;
53401;SDS011;39295;45.534;20.034;2023-05-14T05:04:52;4.95;;;3.78;;
53401;SDS011;39295;45.534;20.034;2023-05-14T05:10:22;10.88;;;4.05;;
53401;SDS011;39295;45.534;20.034;2023-05-14T05:12:48;6.65;;;3.90;;
53401;SDS011;39295;45.534;20.034;2023-05-14T05:15:14;6.35;;;4.68;;
53401;SDS011;39295;45.534;20.034;2023-05-14T05:17:40;9.55;;;5.55;;
53401;SDS011;39295;45.534;20.034;2023-05-14T05:20:07;7.15;;;4.13;;
53401;SDS011;39295;45.534;20.034;2023-05-14T05:35:09;9.05;;;5.03;;
53401;SDS011;39295;45.534;20.034;2023-05-14T05:37:35;8.23;;;5.25;;
53401;SDS011;39295;45.534;20.034;2023-05-14T05:40:02;7.18;;;5.57;;
53401;SDS011;39295;45.534;20.034;2023-05-14T05:42:28;6.72;;;4.78;;
53401;SDS011;39295;45.534;20.034;2023-05-14T05:44:54;8.45;;;5.32;;
53401;SDS011;39295;45.534;20.034;2023-05-14T05:47:20;8.52;;;5.28;;
53401;SDS011;39295;45.534;20.034;2023-05-14T05:49:46;7.55;;;5.53;;
53401;SDS011;39295;45.534;20.034;2023-05-14T05:52:12;7.93;;;6.03;;
53401;SDS011;39295;45.534;20.034;2023-05-14T05:54:38;9.68;;;6.32;;
53401;SDS011;39295;45.534;20.034;2023-05-14T05:57:04;9.57;;;5.78;;
53401;SDS011;39295;45.534;20.034;2023-05-14T05:59:30;7.78;;;5.70;;
53401;SDS011;39295;45.534;20.034;2023-05-14T06:01:57;9.50;;;5.35;;
53401;SDS011;39295;45.534;20.034;2023-05-14T06:04:23;7.18;;;5.35;;
53401;SDS011;39295;45.534;20.034;2023-05-14T06:06:49;8.27;;;4.97;;
53401;SDS011;39295;45.534;20.034;2023-05-14T06:09:33;6.32;;;5.00;;
53401;SDS011;39295;45.534;20.034;2023-05-14T06:11:59;6.85;;;5.30;;
53401;SDS011;39295;45.534;20.034;2023-05-14T06:14:25;8.35;;;5.10;;
53401;SDS011;39295;45.534;20.034;2023-05-14T06:16:51;6.82;;;4.68;;
53401;SDS011;39295;45.534;20.034;2023-05-14T06:19:17;8.68;;;6.15;;
53401;SDS011;39295;45.534;20.034;2023-05-14T06:21:43;7.70;;;5.63;;
53401;SDS011;39295;45.534;20.034;2023-05-14T06:27:13;6.28;;;4.95;;
53401;SDS011;39295;45.534;20.034;2023-05-14T06:29:39;7.95;;;5.55;;
53401;SDS011;39295;45.534;20.034;2023-05-14T06:32:05;5.55;;;4.45;;
53401;SDS011;39295;45.534;20.034;2023-05-14T06:34:32;6.53;;;4.50;;
53401;SDS011;39295;45.534;20.034;2023-05-14T06:36:58;8.27;;;4.63;;
53401;SDS011;39295;45.534;20.034;2023-05-14T06:39:26;5.03;;;4.53;;
53401;SDS011;39295;45.534;20.034;2023-05-14T06:41:52;12.85;;;6.43;;
53401;SDS011;39295;45.534;20.034;2023-05-14T06:44:18;29.00;;;25.15;;
53401;SDS011;39295;45.534;20.034;2023-05-14T06:46:44;8.57;;;6.53;;
53401;SDS011;39295;45.534;20.034;2023-05-14T06:49:10;6.95;;;5.68;;
53401;SDS011;39295;45.534;20.034;2023-05-14T06:51:36;32.90;;;21.70;;
53401;SDS011;39295;45.534;20.034;2023-05-14T06:57:06;12.95;;;8.68;;
53401;SDS011;39295;45.534;20.034;2023-05-14T06:59:32;12.70;;;8.05;;
53401;SDS011;39295;45.534;20.034;2023-05-14T07:01:58;28.42;;;13.32;;
53401;SDS011;39295;45.534;20.034;2023-05-14T07:04:25;27.85;;;11.65;;
53401;SDS011;39295;45.534;20.034;2023-05-14T07:06:51;17.45;;;8.07;;
53401;SDS011;39295;45.534;20.034;2023-05-14T07:09:17;17.63;;;7.20;;
53401;SDS011;39295;45.534;20.034;2023-05-14T07:11:43;15.60;;;6.57;;
53401;SDS011;39295;45.534;20.034;2023-05-14T07:14:09;10.00;;;5.28;;
53401;SDS011;39295;45.534;20.034;2023-05-14T07:16:35;19.17;;;7.60;;
53401;SDS011;39295;45.534;20.034;2023-05-14T07:19:01;9.75;;;5.35;;
53401;SDS011;39295;45.534;20.034;2023-05-14T07:21:28;14.98;;;5.95;;
53401;SDS011;39295;45.534;20.034;2023-05-14T07:23:54;12.50;;;5.70;;
53401;SDS011;39295;45.534;20.034;2023-05-14T07:26:20;9.98;;;5.05;;
53401;SDS011;39295;45.534;20.034;2023-05-14T07:28:48;11.10;;;5.80;;
53401;SDS011;39295;45.534;20.034;2023-05-14T07:31:14;7.82;;;5.22;;
53401;SDS011;39295;45.534;20.034;2023-05-14T07:33:40;11.93;;;5.90;;
53401;SDS011;39295;45.534;20.034;2023-05-14T07:36:06;14.55;;;7.22;;
53401;SDS011;39295;45.534;20.034;2023-05-14T07:38:32;11.85;;;6.35;;
53401;SDS011;39295;45.534;20.034;2023-05-14T07:40:59;15.30;;;6.50;;
53401;SDS011;39295;45.534;20.034;2023-05-14T07:43:25;10.40;;;6.30;;
53401;SDS011;39295;45.534;20.034;2023-05-14T07:45:51;16.58;;;6.50;;
53401;SDS011;39295;45.534;20.034;2023-05-14T07:48:17;11.57;;;5.47;;
53401;SDS011;39295;45.534;20.034;2023-05-14T07:50:43;9.02;;;5.80;;
53401;SDS011;39295;45.534;20.034;2023-05-14T07:53:09;11.02;;;5.80;;
53401;SDS011;39295;45.534;20.034;2023-05-14T07:55:35;8.32;;;5.15;;
53401;SDS011;39295;45.534;20.034;2023-05-14T07:58:01;8.82;;;5.80;;
53401;SDS011;39295;45.534;20.034;2023-05-14T08:00:27;10.48;;;5.45;;
53401;SDS011;39295;45.534;20.034;2023-05-14T08:02:54;9.57;;;6.40;;
53401;SDS011;39295;45.534;20.034;2023-05-14T08:05:20;12.82;;;7.15;;
53401;SDS011;39295;45.534;20.034;2023-05-14T08:07:46;10.15;;;6.72;;
53401;SDS011;39295;45.534;20.034;2023-05-14T08:10:12;12.35;;;6.68;;
53401;SDS011;39295;45.534;20.034;2023-05-14T08:12:38;11.38;;;6.45;;
53401;SDS011;39295;45.534;20.034;2023-05-14T08:15:04;8.48;;;5.68;;
53401;SDS011;39295;45.534;20.034;2023-05-14T08:17:31;11.52;;;6.15;;
53401;SDS011;39295;45.534;20.034;2023-05-14T08:19:57;6.70;;;5.65;;
53401;SDS011;39295;45.534;20.034;2023-05-14T08:22:23;7.93;;;6.28;;
53401;SDS011;39295;45.534;20.034;2023-05-14T08:24:50;8.00;;;5.43;;
53401;SDS011;39295;45.534;20.034;2023-05-14T08:27:16;9.32;;;6.30;;
53401;SDS011;39295;45.534;20.034;2023-05-14T08:29:42;9.35;;;5.95;;
53401;SDS011;39295;45.534;20.034;2023-05-14T08:32:08;8.55;;;6.05;;
53401;SDS011;39295;45.534;20.034;2023-05-14T08:34:34;10.05;;;6.70;;
53401;SDS011;39295;45.534;20.034;2023-05-14T08:37:00;7.20;;;5.50;;
53401;SDS011;39295;45.534;20.034;2023-05-14T08:39:27;7.78;;;5.93;;
53401;SDS011;39295;45.534;20.034;2023-05-14T08:41:53;7.15;;;5.63;;
53401;SDS011;39295;45.534;20.034;2023-05-14T08:44:23;9.27;;;5.63;;
53401;SDS011;39295;45.534;20.034;2023-05-14T08:46:54;7.72;;;5.82;;
53401;SDS011;39295;45.534;20.034;2023-05-14T08:49:43;9.25;;;5.93;;
53401;SDS011;39295;45.534;20.034;2023-05-14T08:52:11;7.72;;;6.43;;
53401;SDS011;39295;45.534;20.034;2023-05-14T08:57:40;10.48;;;6.82;;
53401;SDS011;39295;45.534;20.034;2023-05-14T09:00:06;8.38;;;6.63;;
53401;SDS011;39295;45.534;20.034;2023-05-14T09:02:35;11.20;;;7.80;;
53401;SDS011;39295;45.534;20.034;2023-05-14T09:05:02;7.82;;;6.55;;
53401;SDS011;39295;45.534;20.034;2023-05-14T09:07:29;8.02;;;6.35;;
53401;SDS011;39295;45.534;20.034;2023-05-14T09:12:59;7.43;;;6.60;;
53401;SDS011;39295;45.534;20.034;2023-05-14T09:15:25;9.38;;;6.57;;
53401;SDS011;39295;45.534;20.034;2023-05-14T09:17:52;12.05;;;6.53;;
53401;SDS011;39295;45.534;20.034;2023-05-14T09:20:18;11.30;;;6.43;;
53401;SDS011;39295;45.534;20.034;2023-05-14T09:22:44;9.02;;;6.93;;
53401;SDS011;39295;45.534;20.034;2023-05-14T09:25:10;8.43;;;6.38;;
53401;SDS011;39295;45.534;20.034;2023-05-14T09:27:37;10.45;;;6.82;;
53401;SDS011;39295;45.534;20.034;2023-05-14T09:30:04;11.13;;;7.38;;
53401;SDS011;39295;45.534;20.034;2023-05-14T09:41:05;8.98;;;7.10;;
53401;SDS011;39295;45.534;20.034;2023-05-14T09:43:31;11.20;;;6.50;;
53401;SDS011;39295;45.534;20.034;2023-05-14T09:45:57;8.93;;;5.82;;
53401;SDS011;39295;45.534;20.034;2023-05-14T09:48:23;10.45;;;6.53;;
53401;SDS011;39295;45.534;20.034;2023-05-14T09:50:50;9.32;;;6.72;;
53401;SDS011;39295;45.534;20.034;2023-05-14T09:53:16;11.35;;;6.80;;
53401;SDS011;39295;45.534;20.034;2023-05-14T09:55:42;9.70;;;6.22;;
53401;SDS011;39295;45.534;20.034;2023-05-14T09:58:08;10.32;;;7.10;;
53401;SDS011;39295;45.534;20.034;2023-05-14T10:00:35;10.13;;;6.85;;
53401;SDS011;39295;45.534;20.034;2023-05-14T10:03:04;14.98;;;8.18;;
53401;SDS011;39295;45.534;20.034;2023-05-14T10:05:40;7.63;;;6.10;;
53401;SDS011;39295;45.534;20.034;2023-05-14T10:11:23;11.02;;;8.55;;
53401;SDS011;39295;45.534;20.034;2023-05-14T10:16:39;8.75;;;6.88;;
53401;SDS011;39295;45.534;20.034;2023-05-14T10:19:10;8.50;;;6.53;;
53401;SDS011;39295;45.534;20.034;2023-05-14T10:21:37;9.82;;;6.50;;
53401;SDS011;39295;45.534;20.034;2023-05-14T10:24:03;9.02;;;6.07;;
53401;SDS011;39295;45.534;20.034;2023-05-14T10:26:31;8.57;;;6.40;;
53401;SDS011;39295;45.534;20.034;2023-05-14T10:28:57;13.10;;;7.28;;
53401;SDS011;39295;45.534;20.034;2023-05-14T10:34:18;7.75;;;5.22;;
53401;SDS011;39295;45.534;20.034;2023-05-14T10:36:57;8.10;;;5.53;;
53401;SDS011;39295;45.534;20.034;2023-05-14T10:39:30;9.73;;;5.60;;
53401;SDS011;39295;45.534;20.034;2023-05-14T10:42:04;9.52;;;6.00;;
53401;SDS011;39295;45.534;20.034;2023-05-14T10:44:30;10.90;;;6.10;;
53401;SDS011;39295;45.534;20.034;2023-05-14T10:46:57;10.13;;;6.57;;
53401;SDS011;39295;45.534;20.034;2023-05-14T10:49:23;9.13;;;6.18;;
53401;SDS011;39295;45.534;20.034;2023-05-14T10:51:51;9.48;;;6.20;;
53401;SDS011;39295;45.534;20.034;2023-05-14T10:54:17;8.35;;;5.90;;
53401;SDS011;39295;45.534;20.034;2023-05-14T10:56:46;7.60;;;6.13;;
53401;SDS011;39295;45.534;20.034;2023-05-14T10:59:12;8.15;;;5.93;;
53401;SDS011;39295;45.534;20.034;2023-05-14T11:01:41;6.65;;;5.50;;
53401;SDS011;39295;45.534;20.034;2023-05-14T11:04:07;7.38;;;5.70;;
53401;SDS011;39295;45.534;20.034;2023-05-14T11:06:33;6.55;;;5.75;;
53401;SDS011;39295;45.534;20.034;2023-05-14T11:12:04;8.52;;;6.15;;
53401;SDS011;39295;45.534;20.034;2023-05-14T11:14:31;9.32;;;6.60;;
53401;SDS011;39295;45.534;20.034;2023-05-14T11:16:57;11.57;;;7.15;;
53401;SDS011;39295;45.534;20.034;2023-05-14T11:19:23;11.50;;;7.45;;
53401;SDS011;39295;45.534;20.034;2023-05-14T11:21:49;9.70;;;6.50;;
53401;SDS011;39295;45.534;20.034;2023-05-14T11:24:15;8.23;;;6.50;;
53401;SDS011;39295;45.534;20.034;2023-05-14T11:26:41;8.32;;;6.85;;
53401;SDS011;39295;45.534;20.034;2023-05-14T11:29:08;11.88;;;7.70;;
53401;SDS011;39295;45.534;20.034;2023-05-14T11:31:38;11.10;;;7.85;;
53401;SDS011;39295;45.534;20.034;2023-05-14T11:34:24;10.30;;;7.68;;
53401;SDS011;39295;45.534;20.034;2023-05-14T11:36:50;9.70;;;7.60;;
53401;SDS011;39295;45.534;20.034;2023-05-14T11:39:17;11.40;;;6.70;;
53401;SDS011;39295;45.534;20.034;2023-05-14T11:41:43;11.95;;;7.20;;
53401;SDS011;39295;45.534;20.034;2023-05-14T11:44:10;11.13;;;7.47;;
53401;SDS011;39295;45.534;20.034;2023-05-14T11:46:36;11.32;;;7.22;;
53401;SDS011;39295;45.534;20.034;2023-05-14T11:49:05;14.00;;;7.03;;
53401;SDS011;39295;45.534;20.034;2023-05-14T11:51:32;7.85;;;6.38;;
53401;SDS011;39295;45.534;20.034;2023-05-14T11:53:59;15.50;;;6.22;;
53401;SDS011;39295;45.534;20.034;2023-05-14T11:56:25;11.43;;;6.60;;
53401;SDS011;39295;45.534;20.034;2023-05-14T11:58:54;11.43;;;6.95;;
53401;SDS011;39295;45.534;20.034;2023-05-14T12:01:22;12.97;;;8.53;;
53401;SDS011;39295;45.534;20.034;2023-05-14T12:03:48;18.27;;;9.52;;
53401;SDS011;39295;45.534;20.034;2023-05-14T12:06:15;14.23;;;8.23;;
53401;SDS011;39295;45.534;20.034;2023-05-14T12:11:45;15.35;;;9.05;;
53401;SDS011;39295;45.534;20.034;2023-05-14T12:14:21;17.15;;;8.68;;
53401;SDS011;39295;45.534;20.034;2023-05-14T12:16:47;13.35;;;8.13;;
53401;SDS011;39295;45.534;20.034;2023-05-14T12:19:14;10.52;;;7.90;;
53401;SDS011;39295;45.534;20.034;2023-05-14T12:21:44;9.55;;;7.03;;
53401;SDS011;39295;45.534;20.034;2023-05-14T12:27:14;8.18;;;6.00;;
53401;SDS011;39295;45.534;20.034;2023-05-14T12:29:40;11.40;;;6.63;;
53401;SDS011;39295;45.534;20.034;2023-05-14T12:32:08;12.88;;;7.32;;
53401;SDS011;39295;45.534;20.034;2023-05-14T12:34:35;12.38;;;7.22;;
53401;SDS011;39295;45.534;20.034;2023-05-14T12:37:01;9.32;;;6.80;;
53401;SDS011;39295;45.534;20.034;2023-05-14T12:39:29;12.25;;;7.15;;
53401;SDS011;39295;45.534;20.034;2023-05-14T12:41:55;9.52;;;7.43;;
53401;SDS011;39295;45.534;20.034;2023-05-14T12:44:21;12.25;;;7.72;;
53401;SDS011;39295;45.534;20.034;2023-05-14T12:46:47;17.77;;;9.60;;
53401;SDS011;39295;45.534;20.034;2023-05-14T12:49:14;17.65;;;10.40;;
53401;SDS011;39295;45.534;20.034;2023-05-14T12:51:40;14.25;;;8.38;;
53401;SDS011;39295;45.534;20.034;2023-05-14T12:54:06;13.95;;;8.75;;
53401;SDS011;39295;45.534;20.034;2023-05-14T12:56:32;9.73;;;7.18;;
53401;SDS011;39295;45.534;20.034;2023-05-14T12:58:58;12.25;;;8.52;;
53401;SDS011;39295;45.534;20.034;2023-05-14T13:01:24;9.60;;;7.72;;
53401;SDS011;39295;45.534;20.034;2023-05-14T13:03:50;11.88;;;7.90;;
53401;SDS011;39295;45.534;20.034;2023-05-14T13:06:16;16.42;;;8.40;;
53401;SDS011;39295;45.534;20.034;2023-05-14T13:08:42;11.38;;;8.38;;
53401;SDS011;39295;45.534;20.034;2023-05-14T13:11:09;13.57;;;9.35;;
53401;SDS011;39295;45.534;20.034;2023-05-14T13:13:35;9.82;;;7.82;;
53401;SDS011;39295;45.534;20.034;2023-05-14T13:16:01;12.93;;;8.20;;
53401;SDS011;39295;45.534;20.034;2023-05-14T13:18:27;8.82;;;6.70;;
53401;SDS011;39295;45.534;20.034;2023-05-14T13:20:53;13.23;;;6.78;;
53401;SDS011;39295;45.534;20.034;2023-05-14T13:23:19;11.73;;;6.88;;
53401;SDS011;39295;45.534;20.034;2023-05-14T13:28:49;7.65;;;6.35;;
53401;SDS011;39295;45.534;20.034;2023-05-14T13:31:15;8.88;;;5.70;;
53401;SDS011;39295;45.534;20.034;2023-05-14T13:33:42;9.82;;;4.88;;
53401;SDS011;39295;45.534;20.034;2023-05-14T13:36:09;7.28;;;4.78;;
53401;SDS011;39295;45.534;20.034;2023-05-14T13:41:36;8.45;;;5.60;;
53401;SDS011;39295;45.534;20.034;2023-05-14T13:44:02;9.20;;;5.95;;
53401;SDS011;39295;45.534;20.034;2023-05-14T13:46:28;10.82;;;5.20;;
53401;SDS011;39295;45.534;20.034;2023-05-14T13:48:54;7.97;;;5.38;;
53401;SDS011;39295;45.534;20.034;2023-05-14T13:51:21;9.02;;;5.10;;
53401;SDS011;39295;45.534;20.034;2023-05-14T13:56:51;9.77;;;5.28;;
53401;SDS011;39295;45.534;20.034;2023-05-14T13:59:17;8.68;;;4.90;;
53401;SDS011;39295;45.534;20.034;2023-05-14T14:01:44;8.07;;;5.50;;
53401;SDS011;39295;45.534;20.034;2023-05-14T14:04:11;10.57;;;6.20;;
53401;SDS011;39295;45.534;20.034;2023-05-14T14:06:40;7.90;;;6.22;;
53401;SDS011;39295;45.534;20.034;2023-05-14T14:09:06;10.88;;;7.03;;
53401;SDS011;39295;45.534;20.034;2023-05-14T14:11:34;9.57;;;7.95;;
53401;SDS011;39295;45.534;20.034;2023-05-14T14:14:00;9.40;;;6.93;;
53401;SDS011;39295;45.534;20.034;2023-05-14T14:16:26;11.50;;;6.53;;
53401;SDS011;39295;45.534;20.034;2023-05-14T14:18:52;12.38;;;6.50;;
53401;SDS011;39295;45.534;20.034;2023-05-14T14:21:18;9.65;;;5.78;;
53401;SDS011;39295;45.534;20.034;2023-05-14T14:23:45;11.90;;;6.35;;
53401;SDS011;39295;45.534;20.034;2023-05-14T14:26:11;10.10;;;6.25;;
53401;SDS011;39295;45.534;20.034;2023-05-14T14:28:37;11.13;;;6.30;;
53401;SDS011;39295;45.534;20.034;2023-05-14T14:31:04;8.45;;;6.45;;
53401;SDS011;39295;45.534;20.034;2023-05-14T14:33:30;10.25;;;6.47;;
53401;SDS011;39295;45.534;20.034;2023-05-14T14:35:56;10.23;;;7.57;;
53401;SDS011;39295;45.534;20.034;2023-05-14T14:38:23;11.90;;;7.53;;
53401;SDS011;39295;45.534;20.034;2023-05-14T14:43:53;19.08;;;8.25;;
53401;SDS011;39295;45.534;20.034;2023-05-14T14:46:19;14.65;;;8.35;;
53401;SDS011;39295;45.534;20.034;2023-05-14T14:48:45;11.45;;;7.88;;
53401;SDS011;39295;45.534;20.034;2023-05-14T14:51:11;13.40;;;7.45;;
53401;SDS011;39295;45.534;20.034;2023-05-14T14:53:37;14.55;;;7.78;;
53401;SDS011;39295;45.534;20.034;2023-05-14T14:58:49;14.00;;;9.18;;
53401;SDS011;39295;45.534;20.034;2023-05-14T15:01:15;12.77;;;8.00;;
53401;SDS011;39295;45.534;20.034;2023-05-14T15:03:41;14.85;;;8.73;;
53401;SDS011;39295;45.534;20.034;2023-05-14T15:06:09;8.40;;;7.35;;
53401;SDS011;39295;45.534;20.034;2023-05-14T15:08:36;8.63;;;7.35;;
53401;SDS011;39295;45.534;20.034;2023-05-14T15:11:02;12.57;;;7.70;;
53401;SDS011;39295;45.534;20.034;2023-05-14T15:13:30;13.85;;;8.32;;
53401;SDS011;39295;45.534;20.034;2023-05-14T15:15:56;13.55;;;7.80;;
53401;SDS011;39295;45.534;20.034;2023-05-14T15:18:22;10.13;;;7.80;;
53401;SDS011;39295;45.534;20.034;2023-05-14T15:20:48;12.48;;;8.70;;
53401;SDS011;39295;45.534;20.034;2023-05-14T15:23:14;11.75;;;7.78;;
53401;SDS011;39295;45.534;20.034;2023-05-14T15:32:06;12.55;;;8.95;;
53401;SDS011;39295;45.534;20.034;2023-05-14T15:34:32;10.30;;;8.40;;
53401;SDS011;39295;45.534;20.034;2023-05-14T15:36:58;19.35;;;8.40;;
53401;SDS011;39295;45.534;20.034;2023-05-14T15:42:09;11.57;;;7.68;;
53401;SDS011;39295;45.534;20.034;2023-05-14T15:44:35;9.98;;;8.10;;
53401;SDS011;39295;45.534;20.034;2023-05-14T15:47:01;14.10;;;7.90;;
53401;SDS011;39295;45.534;20.034;2023-05-14T15:49:27;12.82;;;8.40;;
53401;SDS011;39295;45.534;20.034;2023-05-14T15:51:54;11.75;;;7.65;;
53401;SDS011;39295;45.534;20.034;2023-05-14T15:57:37;10.85;;;8.20;;
53401;SDS011;39295;45.534;20.034;2023-05-14T16:00:03;12.90;;;9.10;;
53401;SDS011;39295;45.534;20.034;2023-05-14T16:02:34;11.68;;;8.35;;
53401;SDS011;39295;45.534;20.034;2023-05-14T16:05:00;11.88;;;8.18;;
53401;SDS011;39295;45.534;20.034;2023-05-14T16:07:26;11.20;;;7.85;;
53401;SDS011;39295;45.534;20.034;2023-05-14T16:12:56;10.93;;;7.93;;
53401;SDS011;39295;45.534;20.034;2023-05-14T16:15:22;13.18;;;8.68;;
53401;SDS011;39295;45.534;20.034;2023-05-14T16:17:48;9.50;;;7.28;;
53401;SDS011;39295;45.534;20.034;2023-05-14T16:20:14;13.30;;;8.02;;
53401;SDS011;39295;45.534;20.034;2023-05-14T16:22:41;14.23;;;7.65;;
53401;SDS011;39295;45.534;20.034;2023-05-14T16:28:24;13.73;;;8.55;;
53401;SDS011;39295;45.534;20.034;2023-05-14T16:30:50;15.90;;;7.47;;
53401;SDS011;39295;45.534;20.034;2023-05-14T16:33:16;10.93;;;8.55;;
53401;SDS011;39295;45.534;20.034;2023-05-14T16:35:42;10.35;;;7.55;;
53401;SDS011;39295;45.534;20.034;2023-05-14T16:38:09;9.38;;;8.15;;
53401;SDS011;39295;45.534;20.034;2023-05-14T16:40:53;13.20;;;8.82;;
53401;SDS011;39295;45.534;20.034;2023-05-14T16:43:19;11.38;;;8.70;;
53401;SDS011;39295;45.534;20.034;2023-05-14T16:45:45;11.88;;;8.48;;
53401;SDS011;39295;45.534;20.034;2023-05-14T16:48:12;12.73;;;7.55;;
53401;SDS011;39295;45.534;20.034;2023-05-14T16:50:38;10.50;;;7.85;;